sensor_id;sensor_type;location;lat;lon;timestamp;pressure;altitude;pressure_sealevel;temperature;humidity
54920;BME280;63804;53.120;8.764;2023-03-14T00:01:29;98918.81;;;9.51;72.72
54920;BME280;63804;53.120;8.764;2023-03-14T00:03:55;98918.81;;;9.51;72.61
54920;BME280;63804;53.120;8.764;2023-03-14T00:06:21;98912.69;;;9.51;72.88
54920;BME280;63804;53.120;8.764;2023-03-14T00:08:47;98914.53;;;9.50;72.89
54920;BME280;63804;53.120;8.764;2023-03-14T00:11:15;98902.28;;;9.49;72.87
54920;BME280;63804;53.120;8.764;2023-03-14T00:13:41;98901.59;;;9.47;72.79
54920;BME280;63804;53.120;8.764;2023-03-14T00:16:11;98885.53;;;9.49;72.79
54920;BME280;63804;53.120;8.764;2023-03-14T00:18:38;98882.72;;;9.50;72.69
54920;BME280;63804;53.120;8.764;2023-03-14T00:21:05;98884.88;;;9.46;72.77
54920;BME280;63804;53.120;8.764;2023-03-14T00:23:32;98884.88;;;9.46;72.87
54920;BME280;63804;53.120;8.764;2023-03-14T00:25:59;98879.38;;;9.40;72.78
54920;BME280;63804;53.120;8.764;2023-03-14T00:28:25;98880.56;;;9.37;73.06
54920;BME280;63804;53.120;8.764;2023-03-14T00:30:51;98885.38;;;9.34;73.32
54920;BME280;63804;53.120;8.764;2023-03-14T00:33:16;98883.88;;;9.39;72.80
54920;BME280;63804;53.120;8.764;2023-03-14T00:35:42;98882.72;;;9.42;73.04
54920;BME280;63804;53.120;8.764;2023-03-14T00:38:07;98878.25;;;9.42;72.81
54920;BME280;63804;53.120;8.764;2023-03-14T00:40:33;98895.66;;;9.45;72.74
54920;BME280;63804;53.120;8.764;2023-03-14T00:42:58;98892.63;;;9.48;72.62
54920;BME280;63804;53.120;8.764;2023-03-14T00:45:24;98897.28;;;9.46;72.85
54920;BME280;63804;53.120;8.764;2023-03-14T00:47:49;98907.06;;;9.45;72.91
54920;BME280;63804;53.120;8.764;2023-03-14T00:50:15;98917.50;;;9.47;73.17
54920;BME280;63804;53.120;8.764;2023-03-14T00:52:41;98912.53;;;9.44;73.17
54920;BME280;63804;53.120;8.764;2023-03-14T00:55:06;98884.88;;;9.38;73.38
54920;BME280;63804;53.120;8.764;2023-03-14T00:57:32;98875.91;;;9.31;73.45
54920;BME280;63804;53.120;8.764;2023-03-14T00:59:57;98868.97;;;9.30;73.66
54920;BME280;63804;53.120;8.764;2023-03-14T01:02:23;98880.88;;;9.26;74.10
54920;BME280;63804;53.120;8.764;2023-03-14T01:04:48;98882.72;;;9.26;74.12
54920;BME280;63804;53.120;8.764;2023-03-14T01:07:15;98869.94;;;9.21;74.39
54920;BME280;63804;53.120;8.764;2023-03-14T01:09:40;98849.56;;;9.21;74.45
54920;BME280;63804;53.120;8.764;2023-03-14T01:12:06;98852.56;;;9.18;74.75
54920;BME280;63804;53.120;8.764;2023-03-14T01:14:31;98835.16;;;9.16;75.20
54920;BME280;63804;53.120;8.764;2023-03-14T01:16:57;98828.84;;;9.17;75.16
54920;BME280;63804;53.120;8.764;2023-03-14T01:19:27;98833.50;;;9.23;74.99
54920;BME280;63804;53.120;8.764;2023-03-14T01:21:53;98814.47;;;9.28;75.03
54920;BME280;63804;53.120;8.764;2023-03-14T01:24:19;98797.91;;;9.26;75.56
54920;BME280;63804;53.120;8.764;2023-03-14T01:26:46;98789.47;;;9.30;75.50
54920;BME280;63804;53.120;8.764;2023-03-14T01:29:11;98785.16;;;9.37;75.09
54920;BME280;63804;53.120;8.764;2023-03-14T01:31:37;98800.56;;;9.34;75.78
54920;BME280;63804;53.120;8.764;2023-03-14T01:34:02;98812.31;;;9.31;75.82
54920;BME280;63804;53.120;8.764;2023-03-14T01:36:28;98801.38;;;9.34;75.77
54920;BME280;63804;53.120;8.764;2023-03-14T01:38:53;98798.56;;;9.36;75.92
54920;BME280;63804;53.120;8.764;2023-03-14T01:41:22;98795.59;;;9.39;75.90
54920;BME280;63804;53.120;8.764;2023-03-14T01:43:49;98789.47;;;9.38;76.09
54920;BME280;63804;53.120;8.764;2023-03-14T01:46:30;98784.16;;;9.38;76.54
54920;BME280;63804;53.120;8.764;2023-03-14T01:54:38;98759.31;;;9.39;77.04
54920;BME280;63804;53.120;8.764;2023-03-14T01:59:40;98748.69;;;9.39;76.39
54920;BME280;63804;53.120;8.764;2023-03-14T02:02:11;98747.56;;;9.34;76.63
54920;BME280;63804;53.120;8.764;2023-03-14T02:04:38;98751.84;;;9.35;76.44
54920;BME280;63804;53.120;8.764;2023-03-14T02:07:23;98761.97;;;9.31;76.93
54920;BME280;63804;53.120;8.764;2023-03-14T02:09:51;98759.66;;;9.28;76.43
54920;BME280;63804;53.120;8.764;2023-03-14T02:12:18;98769.41;;;9.28;76.91
54920;BME280;63804;53.120;8.764;2023-03-14T02:14:45;98770.41;;;9.27;76.88
54920;BME280;63804;53.120;8.764;2023-03-14T02:17:14;98779.00;;;9.29;76.65
54920;BME280;63804;53.120;8.764;2023-03-14T02:22:18;98781.34;;;9.32;76.68
54920;BME280;63804;53.120;8.764;2023-03-14T02:24:59;98787.13;;;9.35;76.49
54920;BME280;63804;53.120;8.764;2023-03-14T02:27:28;98789.59;;;9.37;76.54
54920;BME280;63804;53.120;8.764;2023-03-14T02:30:00;98788.47;;;9.39;76.17
54920;BME280;63804;53.120;8.764;2023-03-14T02:32:27;98791.78;;;9.41;76.57
54920;BME280;63804;53.120;8.764;2023-03-14T02:34:58;98793.75;;;9.39;76.75
54920;BME280;63804;53.120;8.764;2023-03-14T02:37:28;98794.75;;;9.38;76.61
54920;BME280;63804;53.120;8.764;2023-03-14T02:39:58;98785.66;;;9.41;76.42
54920;BME280;63804;53.120;8.764;2023-03-14T02:42:23;98790.78;;;9.42;76.26
54920;BME280;63804;53.120;8.764;2023-03-14T02:47:37;98773.88;;;9.43;76.36
54920;BME280;63804;53.120;8.764;2023-03-14T02:50:10;98772.53;;;9.47;75.96
54920;BME280;63804;53.120;8.764;2023-03-14T02:52:38;98778.66;;;9.48;76.06
54920;BME280;63804;53.120;8.764;2023-03-14T02:55:04;98778.19;;;9.53;75.75
54920;BME280;63804;53.120;8.764;2023-03-14T02:57:29;98772.88;;;9.53;75.97
54920;BME280;63804;53.120;8.764;2023-03-14T02:59:58;98773.53;;;9.55;75.49
54920;BME280;63804;53.120;8.764;2023-03-14T03:02:25;98768.53;;;9.60;75.40
54920;BME280;63804;53.120;8.764;2023-03-14T03:04:50;98763.94;;;9.54;75.30
54920;BME280;63804;53.120;8.764;2023-03-14T03:07:16;98772.53;;;9.56;75.42
54920;BME280;63804;53.120;8.764;2023-03-14T03:09:41;98761.91;;;9.56;75.13
54920;BME280;63804;53.120;8.764;2023-03-14T03:12:06;98755.28;;;9.60;74.83
54920;BME280;63804;53.120;8.764;2023-03-14T03:14:32;98762.41;;;9.59;74.73
54920;BME280;63804;53.120;8.764;2023-03-14T03:16:57;98743.22;;;9.57;74.95
54920;BME280;63804;53.120;8.764;2023-03-14T03:19:23;98745.03;;;9.57;74.86
54920;BME280;63804;53.120;8.764;2023-03-14T03:21:48;98744.69;;;9.60;74.62
54920;BME280;63804;53.120;8.764;2023-03-14T03:24:14;98737.72;;;9.59;74.63
54920;BME280;63804;53.120;8.764;2023-03-14T03:26:39;98737.72;;;9.59;74.36
54920;BME280;63804;53.120;8.764;2023-03-14T03:29:05;98741.22;;;9.59;74.24
54920;BME280;63804;53.120;8.764;2023-03-14T03:31:30;98745.84;;;9.65;73.93
54920;BME280;63804;53.120;8.764;2023-03-14T03:33:56;98746.66;;;9.66;73.89
54920;BME280;63804;53.120;8.764;2023-03-14T03:36:26;98744.00;;;9.66;73.91
54920;BME280;63804;53.120;8.764;2023-03-14T03:38:51;98744.19;;;9.64;73.99
54920;BME280;63804;53.120;8.764;2023-03-14T03:41:17;98745.84;;;9.65;73.54
54920;BME280;63804;53.120;8.764;2023-03-14T03:43:49;98747.50;;;9.66;73.42
54920;BME280;63804;53.120;8.764;2023-03-14T03:46:14;98738.72;;;9.66;73.70
54920;BME280;63804;53.120;8.764;2023-03-14T03:48:40;98744.19;;;9.64;73.42
54920;BME280;63804;53.120;8.764;2023-03-14T03:51:06;98773.19;;;9.66;73.52
54920;BME280;63804;53.120;8.764;2023-03-14T03:53:31;98759.44;;;9.54;72.03
54920;BME280;63804;53.120;8.764;2023-03-14T03:55:57;98758.50;;;9.31;73.04
54920;BME280;63804;53.120;8.764;2023-03-14T03:58:22;98742.94;;;9.11;73.91
54920;BME280;63804;53.120;8.764;2023-03-14T04:00:48;98737.47;;;8.96;74.50
54920;BME280;63804;53.120;8.764;2023-03-14T04:03:13;98750.88;;;8.95;74.61
54920;BME280;63804;53.120;8.764;2023-03-14T04:05:39;98752.38;;;8.89;75.15
54920;BME280;63804;53.120;8.764;2023-03-14T04:08:05;98749.91;;;8.88;75.98
54920;BME280;63804;53.120;8.764;2023-03-14T04:10:34;98740.78;;;8.82;76.35
54920;BME280;63804;53.120;8.764;2023-03-14T04:12:59;98736.31;;;8.74;76.62
54920;BME280;63804;53.120;8.764;2023-03-14T04:15:25;98740.63;;;8.84;76.70
54920;BME280;63804;53.120;8.764;2023-03-14T04:17:50;98733.66;;;8.91;76.58
54920;BME280;63804;53.120;8.764;2023-03-14T04:20:15;98737.47;;;8.96;76.59
54920;BME280;63804;53.120;8.764;2023-03-14T04:22:41;98735.31;;;9.00;77.11
54920;BME280;63804;53.120;8.764;2023-03-14T04:25:07;98737.16;;;9.00;77.03
54920;BME280;63804;53.120;8.764;2023-03-14T04:27:32;98727.38;;;9.00;77.40
54920;BME280;63804;53.120;8.764;2023-03-14T04:29:58;98727.06;;;9.03;77.12
54920;BME280;63804;53.120;8.764;2023-03-14T04:32:23;98718.94;;;9.05;77.22
54920;BME280;63804;53.120;8.764;2023-03-14T04:34:49;98723.56;;;9.03;76.92
54920;BME280;63804;53.120;8.764;2023-03-14T04:37:14;98727.19;;;9.10;76.76
54920;BME280;63804;53.120;8.764;2023-03-14T04:39:40;98714.63;;;9.12;76.32
54920;BME280;63804;53.120;8.764;2023-03-14T04:42:06;98716.28;;;9.13;75.89
54920;BME280;63804;53.120;8.764;2023-03-14T04:44:31;98709.97;;;9.14;75.86
54920;BME280;63804;53.120;8.764;2023-03-14T04:46:57;98709.00;;;9.15;75.79
54920;BME280;63804;53.120;8.764;2023-03-14T04:49:22;98720.25;;;9.17;75.58
54920;BME280;63804;53.120;8.764;2023-03-14T04:51:48;98720.94;;;9.11;75.64
54920;BME280;63804;53.120;8.764;2023-03-14T04:54:16;98723.72;;;9.17;75.84
54920;BME280;63804;53.120;8.764;2023-03-14T04:56:42;98722.25;;;9.15;76.07
54920;BME280;63804;53.120;8.764;2023-03-14T04:59:07;98718.59;;;9.08;76.36
54920;BME280;63804;53.120;8.764;2023-03-14T05:01:33;98719.59;;;9.07;76.48
54920;BME280;63804;53.120;8.764;2023-03-14T05:03:59;98727.56;;;9.07;76.55
54920;BME280;63804;53.120;8.764;2023-03-14T05:06:25;98729.84;;;9.02;76.68
54920;BME280;63804;53.120;8.764;2023-03-14T05:08:50;98725.22;;;8.95;76.05
54920;BME280;63804;53.120;8.764;2023-03-14T05:11:16;98730.34;;;8.97;75.73
54920;BME280;63804;53.120;8.764;2023-03-14T05:13:41;98717.44;;;8.94;75.38
54920;BME280;63804;53.120;8.764;2023-03-14T05:16:09;98729.53;;;8.88;75.46
54920;BME280;63804;53.120;8.764;2023-03-14T05:18:35;98719.59;;;8.82;75.18
54920;BME280;63804;53.120;8.764;2023-03-14T05:21:00;98724.56;;;8.85;74.71
54920;BME280;63804;53.120;8.764;2023-03-14T05:23:32;98726.53;;;8.83;74.83
54920;BME280;63804;53.120;8.764;2023-03-14T05:25:57;98728.53;;;8.81;74.92
54920;BME280;63804;53.120;8.764;2023-03-14T05:28:23;98721.91;;;8.77;74.96
54920;BME280;63804;53.120;8.764;2023-03-14T05:30:48;98712.66;;;8.73;74.69
54920;BME280;63804;53.120;8.764;2023-03-14T05:33:14;98712.66;;;8.73;74.56
54920;BME280;63804;53.120;8.764;2023-03-14T05:35:39;98708.19;;;8.65;74.56
54920;BME280;63804;53.120;8.764;2023-03-14T05:38:05;98721.09;;;8.68;74.62
54920;BME280;63804;53.120;8.764;2023-03-14T05:40:30;98701.69;;;8.60;74.26
54920;BME280;63804;53.120;8.764;2023-03-14T05:42:56;98697.91;;;8.54;74.33
54920;BME280;63804;53.120;8.764;2023-03-14T05:45:21;98709.00;;;8.58;74.17
54920;BME280;63804;53.120;8.764;2023-03-14T05:47:47;98706.16;;;8.59;74.04
54920;BME280;63804;53.120;8.764;2023-03-14T05:50:12;98706.50;;;8.64;73.77
54920;BME280;63804;53.120;8.764;2023-03-14T05:52:37;98698.91;;;8.69;73.55
54920;BME280;63804;53.120;8.764;2023-03-14T05:55:03;98700.56;;;8.70;73.60
54920;BME280;63804;53.120;8.764;2023-03-14T05:57:29;98699.91;;;8.77;73.54
54920;BME280;63804;53.120;8.764;2023-03-14T05:59:55;98702.38;;;8.78;73.34
54920;BME280;63804;53.120;8.764;2023-03-14T06:02:20;98711.16;;;8.79;73.16
54920;BME280;63804;53.120;8.764;2023-03-14T06:04:46;98703.88;;;8.81;72.98
54920;BME280;63804;53.120;8.764;2023-03-14T06:07:11;98704.38;;;8.84;73.05
54920;BME280;63804;53.120;8.764;2023-03-14T06:09:37;98709.81;;;8.83;72.71
54920;BME280;63804;53.120;8.764;2023-03-14T06:12:03;98703.88;;;8.89;71.87
54920;BME280;63804;53.120;8.764;2023-03-14T06:14:28;98712.66;;;8.89;72.29
54920;BME280;63804;53.120;8.764;2023-03-14T06:16:54;98706.34;;;8.90;72.18
54920;BME280;63804;53.120;8.764;2023-03-14T06:19:19;98704.06;;;8.95;71.77
54920;BME280;63804;53.120;8.764;2023-03-14T06:21:45;98701.41;;;8.95;71.67
54920;BME280;63804;53.120;8.764;2023-03-14T06:24:10;98704.38;;;9.01;71.31
54920;BME280;63804;53.120;8.764;2023-03-14T06:26:36;98702.88;;;8.98;71.22
54920;BME280;63804;53.120;8.764;2023-03-14T06:29:01;98707.66;;;8.94;71.58
54920;BME280;63804;53.120;8.764;2023-03-14T06:31:30;98712.00;;;9.04;71.32
54920;BME280;63804;53.120;8.764;2023-03-14T06:33:56;98710.81;;;9.06;71.03
54920;BME280;63804;53.120;8.764;2023-03-14T06:36:21;98714.63;;;9.04;71.33
54920;BME280;63804;53.120;8.764;2023-03-14T06:38:47;98713.47;;;8.98;71.36
54920;BME280;63804;53.120;8.764;2023-03-14T06:41:12;98714.47;;;8.97;71.66
54920;BME280;63804;53.120;8.764;2023-03-14T06:43:38;98699.72;;;8.94;71.87
54920;BME280;63804;53.120;8.764;2023-03-14T06:46:03;98715.63;;;8.94;71.86
54920;BME280;63804;53.120;8.764;2023-03-14T06:48:29;98704.38;;;8.84;72.18
54920;BME280;63804;53.120;8.764;2023-03-14T06:50:54;98716.28;;;8.80;72.36
54920;BME280;63804;53.120;8.764;2023-03-14T06:53:20;98714.47;;;8.81;72.84
54920;BME280;63804;53.120;8.764;2023-03-14T06:55:45;98715.44;;;8.80;72.66
54920;BME280;63804;53.120;8.764;2023-03-14T06:58:11;98715.13;;;8.83;72.82
54920;BME280;63804;53.120;8.764;2023-03-14T07:00:37;98724.25;;;8.88;72.78
54920;BME280;63804;53.120;8.764;2023-03-14T07:03:02;98728.53;;;8.89;73.06
54920;BME280;63804;53.120;8.764;2023-03-14T07:05:28;98723.88;;;8.83;73.13
54920;BME280;63804;53.120;8.764;2023-03-14T07:07:53;98720.41;;;8.83;73.58
54920;BME280;63804;53.120;8.764;2023-03-14T07:10:19;98722.75;;;8.94;73.27
54920;BME280;63804;53.120;8.764;2023-03-14T07:12:44;98730.53;;;8.95;73.24
54920;BME280;63804;53.120;8.764;2023-03-14T07:15:10;98734.66;;;8.98;73.23
54920;BME280;63804;53.120;8.764;2023-03-14T07:17:39;98725.72;;;9.07;73.18
54920;BME280;63804;53.120;8.764;2023-03-14T07:20:05;98723.72;;;9.09;73.16
54920;BME280;63804;53.120;8.764;2023-03-14T07:22:30;98722.41;;;9.30;72.46
54920;BME280;63804;53.120;8.764;2023-03-14T07:24:56;98728.19;;;9.25;72.94
54920;BME280;63804;53.120;8.764;2023-03-14T07:27:21;98725.53;;;9.25;73.00
54920;BME280;63804;53.120;8.764;2023-03-14T07:29:47;98727.00;;;9.36;72.54
54920;BME280;63804;53.120;8.764;2023-03-14T07:32:12;98728.50;;;9.38;72.25
54920;BME280;63804;53.120;8.764;2023-03-14T07:34:42;98734.59;;;9.47;72.15
54920;BME280;63804;53.120;8.764;2023-03-14T07:37:08;98744.06;;;9.50;72.25
54920;BME280;63804;53.120;8.764;2023-03-14T07:39:33;98746.00;;;9.56;71.98
54920;BME280;63804;53.120;8.764;2023-03-14T07:41:59;98744.56;;;9.53;71.85
54920;BME280;63804;53.120;8.764;2023-03-14T07:44:25;98746.88;;;9.56;71.99
54920;BME280;63804;53.120;8.764;2023-03-14T07:46:50;98739.75;;;9.49;72.33
54920;BME280;63804;53.120;8.764;2023-03-14T07:49:16;98731.78;;;9.57;71.84
54920;BME280;63804;53.120;8.764;2023-03-14T07:51:41;98744.56;;;9.53;72.25
54920;BME280;63804;53.120;8.764;2023-03-14T07:54:09;98751.16;;;9.57;71.81
54920;BME280;63804;53.120;8.764;2023-03-14T07:56:37;98747.03;;;9.55;71.95
54920;BME280;63804;53.120;8.764;2023-03-14T07:59:03;98740.06;;;9.54;71.86
54920;BME280;63804;53.120;8.764;2023-03-14T08:01:29;98750.69;;;9.54;71.75
54920;BME280;63804;53.120;8.764;2023-03-14T08:03:54;98757.94;;;9.52;71.77
54920;BME280;63804;53.120;8.764;2023-03-14T08:06:20;98745.06;;;9.49;71.96
54920;BME280;63804;53.120;8.764;2023-03-14T08:08:45;98744.22;;;9.56;71.70
54920;BME280;63804;53.120;8.764;2023-03-14T08:11:10;98743.88;;;9.51;71.60
54920;BME280;63804;53.120;8.764;2023-03-14T08:13:37;98733.59;;;9.48;71.93
54920;BME280;63804;53.120;8.764;2023-03-14T08:16:03;98746.72;;;9.50;71.79
54920;BME280;63804;53.120;8.764;2023-03-14T08:18:29;98746.22;;;9.46;71.58
54920;BME280;63804;53.120;8.764;2023-03-14T08:20:55;98747.22;;;9.45;71.61
54920;BME280;63804;53.120;8.764;2023-03-14T08:23:21;98743.09;;;9.34;72.03
54920;BME280;63804;53.120;8.764;2023-03-14T08:25:49;98736.13;;;9.33;72.01
54920;BME280;63804;53.120;8.764;2023-03-14T08:28:15;98731.66;;;9.42;71.67
54920;BME280;63804;53.120;8.764;2023-03-14T08:30:41;98748.56;;;9.41;71.55
54920;BME280;63804;53.120;8.764;2023-03-14T08:33:06;98740.59;;;9.41;71.38
54920;BME280;63804;53.120;8.764;2023-03-14T08:35:31;98747.88;;;9.47;70.98
54920;BME280;63804;53.120;8.764;2023-03-14T08:37:57;98743.56;;;9.46;71.31
54920;BME280;63804;53.120;8.764;2023-03-14T08:40:22;98746.50;;;9.59;70.97
54920;BME280;63804;53.120;8.764;2023-03-14T08:42:48;98757.94;;;9.60;70.79
54920;BME280;63804;53.120;8.764;2023-03-14T08:45:15;98757.81;;;9.53;71.44
54920;BME280;63804;53.120;8.764;2023-03-14T08:47:43;98762.25;;;9.44;72.87
54920;BME280;63804;53.120;8.764;2023-03-14T08:50:09;98772.91;;;9.28;74.47
54920;BME280;63804;53.120;8.764;2023-03-14T08:52:35;98766.28;;;9.16;75.17
54920;BME280;63804;53.120;8.764;2023-03-14T08:55:03;98770.91;;;9.06;76.06
54920;BME280;63804;53.120;8.764;2023-03-14T08:57:29;98775.88;;;9.01;76.87
54920;BME280;63804;53.120;8.764;2023-03-14T08:59:56;98782.66;;;8.95;77.21
54920;BME280;63804;53.120;8.764;2023-03-14T09:02:22;98790.94;;;8.92;77.74
54920;BME280;63804;53.120;8.764;2023-03-14T09:04:47;98809.47;;;8.84;79.28
54920;BME280;63804;53.120;8.764;2023-03-14T09:07:14;98861.03;;;8.63;81.38
54920;BME280;63804;53.120;8.764;2023-03-14T09:09:40;98880.97;;;7.89;77.24
54920;BME280;63804;53.120;8.764;2023-03-14T09:12:05;98898.31;;;7.12;76.56
54920;BME280;63804;53.120;8.764;2023-03-14T09:14:31;98895.72;;;7.02;77.98
54920;BME280;63804;53.120;8.764;2023-03-14T09:16:57;98905.41;;;6.84;77.92
54920;BME280;63804;53.120;8.764;2023-03-14T09:19:23;98922.72;;;6.69;76.43
54920;BME280;63804;53.120;8.764;2023-03-14T09:21:49;98931.13;;;6.54;75.96
54920;BME280;63804;53.120;8.764;2023-03-14T09:24:15;98949.59;;;6.54;75.09
54920;BME280;63804;53.120;8.764;2023-03-14T09:26:40;98959.50;;;6.33;75.75
54920;BME280;63804;53.120;8.764;2023-03-14T09:29:06;98979.22;;;6.19;75.25
54920;BME280;63804;53.120;8.764;2023-03-14T09:31:31;98987.16;;;6.10;75.25
54920;BME280;63804;53.120;8.764;2023-03-14T09:33:56;98991.75;;;5.98;75.13
54920;BME280;63804;53.120;8.764;2023-03-14T09:36:22;99000.47;;;5.89;75.08
54920;BME280;63804;53.120;8.764;2023-03-14T09:38:47;99019.63;;;5.71;74.91
54920;BME280;63804;53.120;8.764;2023-03-14T09:41:21;99021.00;;;5.56;74.07
54920;BME280;63804;53.120;8.764;2023-03-14T09:43:56;99026.41;;;5.64;74.85
54920;BME280;63804;53.120;8.764;2023-03-14T09:46:26;99049.13;;;5.46;74.47
54920;BME280;63804;53.120;8.764;2023-03-14T09:48:52;99039.56;;;5.54;73.87
54920;BME280;63804;53.120;8.764;2023-03-14T09:51:19;99068.13;;;5.49;73.84
54920;BME280;63804;53.120;8.764;2023-03-14T09:53:48;99094.13;;;5.33;73.49
54920;BME280;63804;53.120;8.764;2023-03-14T09:56:23;99097.03;;;5.30;73.79
54920;BME280;63804;53.120;8.764;2023-03-14T09:58:58;99119.66;;;5.42;72.96
54920;BME280;63804;53.120;8.764;2023-03-14T10:01:28;99127.13;;;5.37;72.45
54920;BME280;63804;53.120;8.764;2023-03-14T10:03:55;99142.06;;;5.27;72.89
54920;BME280;63804;53.120;8.764;2023-03-14T10:06:24;99162.63;;;5.12;72.80
54920;BME280;63804;53.120;8.764;2023-03-14T10:08:51;99164.31;;;4.92;72.66
54920;BME280;63804;53.120;8.764;2023-03-14T10:11:18;99180.09;;;4.92;72.29
54920;BME280;63804;53.120;8.764;2023-03-14T10:14:11;99193.81;;;4.75;72.17
54920;BME280;63804;53.120;8.764;2023-03-14T10:16:45;99202.50;;;5.07;72.50
54920;BME280;63804;53.120;8.764;2023-03-14T10:19:16;99204.63;;;5.14;71.18
54920;BME280;63804;53.120;8.764;2023-03-14T10:21:44;99228.53;;;5.31;71.31
54920;BME280;63804;53.120;8.764;2023-03-14T10:24:22;99228.88;;;5.38;71.29
54920;BME280;63804;53.120;8.764;2023-03-14T10:27:17;99254.94;;;5.41;70.35
54920;BME280;63804;53.120;8.764;2023-03-14T10:29:57;99253.91;;;5.12;71.24
54920;BME280;63804;53.120;8.764;2023-03-14T10:32:32;99254.38;;;4.96;72.73
54920;BME280;63804;53.120;8.764;2023-03-14T10:35:19;99274.47;;;5.18;71.91
54920;BME280;63804;53.120;8.764;2023-03-14T10:38:00;99288.84;;;5.35;71.54
54920;BME280;63804;53.120;8.764;2023-03-14T10:40:36;99288.72;;;5.36;70.79
54920;BME280;63804;53.120;8.764;2023-03-14T10:43:11;99298.22;;;5.48;71.09
54920;BME280;63804;53.120;8.764;2023-03-14T10:45:40;99307.94;;;5.48;71.10
54920;BME280;63804;53.120;8.764;2023-03-14T10:50:33;99335.41;;;5.34;71.59
54920;BME280;63804;53.120;8.764;2023-03-14T10:53:02;99328.19;;;5.15;70.99
54920;BME280;63804;53.120;8.764;2023-03-14T10:55:42;99343.38;;;5.23;70.94
54920;BME280;63804;53.120;8.764;2023-03-14T10:58:28;99335.22;;;5.26;70.17
54920;BME280;63804;53.120;8.764;2023-03-14T11:03:31;99338.34;;;5.20;70.54
54920;BME280;63804;53.120;8.764;2023-03-14T11:06:11;99337.13;;;5.24;70.76
54920;BME280;63804;53.120;8.764;2023-03-14T11:08:53;99344.53;;;5.30;70.19
54920;BME280;63804;53.120;8.764;2023-03-14T11:11:25;99347.38;;;5.38;69.98
54920;BME280;63804;53.120;8.764;2023-03-14T11:16:59;99385.66;;;5.42;70.52
54920;BME280;63804;53.120;8.764;2023-03-14T11:28:29;99408.28;;;5.87;68.95
54920;BME280;63804;53.120;8.764;2023-03-14T11:33:38;99412.84;;;5.85;68.32
54920;BME280;63804;53.120;8.764;2023-03-14T11:36:09;99428.72;;;5.94;68.90
54920;BME280;63804;53.120;8.764;2023-03-14T11:38:46;99436.75;;;6.14;67.24
54920;BME280;63804;53.120;8.764;2023-03-14T11:41:16;99437.34;;;6.17;67.86
54920;BME280;63804;53.120;8.764;2023-03-14T11:43:47;99443.19;;;6.21;67.23
54920;BME280;63804;53.120;8.764;2023-03-14T11:46:20;99446.13;;;6.27;66.33
54920;BME280;63804;53.120;8.764;2023-03-14T11:49:11;99451.09;;;6.42;65.37
54920;BME280;63804;53.120;8.764;2023-03-14T11:51:41;99462.00;;;6.16;66.89
54920;BME280;63804;53.120;8.764;2023-03-14T11:57:04;99488.88;;;5.89;67.15
54920;BME280;63804;53.120;8.764;2023-03-14T11:59:55;99500.97;;;5.92;67.96
54920;BME280;63804;53.120;8.764;2023-03-14T12:02:39;99511.97;;;5.97;67.75
54920;BME280;63804;53.120;8.764;2023-03-14T12:11:01;99537.09;;;5.80;67.19
54920;BME280;63804;53.120;8.764;2023-03-14T12:13:36;99540.38;;;5.93;67.65
54920;BME280;63804;53.120;8.764;2023-03-14T12:16:37;99551.31;;;5.89;66.46
54920;BME280;63804;53.120;8.764;2023-03-14T12:22:01;99574.03;;;6.01;67.92
54920;BME280;63804;53.120;8.764;2023-03-14T12:24:34;99588.00;;;6.13;66.54
54920;BME280;63804;53.120;8.764;2023-03-14T12:27:02;99590.84;;;5.89;65.72
54920;BME280;63804;53.120;8.764;2023-03-14T12:29:28;99606.56;;;5.90;61.66
54920;BME280;63804;53.120;8.764;2023-03-14T12:37:06;99639.53;;;6.17;56.36
54920;BME280;63804;53.120;8.764;2023-03-14T12:39:59;99627.94;;;6.08;54.27
54920;BME280;63804;53.120;8.764;2023-03-14T12:48:07;99658.06;;;6.26;53.21
54920;BME280;63804;53.120;8.764;2023-03-14T12:50:54;99663.00;;;6.20;49.42
54920;BME280;63804;53.120;8.764;2023-03-14T13:01:27;99685.28;;;6.38;50.16
54920;BME280;63804;53.120;8.764;2023-03-14T13:03:56;99697.72;;;6.47;50.31
54920;BME280;63804;53.120;8.764;2023-03-14T13:06:54;99708.94;;;6.61;49.18
54920;BME280;63804;53.120;8.764;2023-03-14T13:12:13;99717.72;;;6.50;49.82
54920;BME280;63804;53.120;8.764;2023-03-14T13:14:48;99741.41;;;6.40;45.39
54920;BME280;63804;53.120;8.764;2023-03-14T13:17:16;99736.56;;;6.34;47.97
54920;BME280;63804;53.120;8.764;2023-03-14T13:19:50;99744.75;;;6.20;47.72
54920;BME280;63804;53.120;8.764;2023-03-14T13:22:23;99754.84;;;6.15;47.99
54920;BME280;63804;53.120;8.764;2023-03-14T13:24:58;99753.41;;;6.11;47.86
54920;BME280;63804;53.120;8.764;2023-03-14T13:27:24;99762.53;;;6.06;49.36
54920;BME280;63804;53.120;8.764;2023-03-14T13:29:51;99761.56;;;5.96;48.33
54920;BME280;63804;53.120;8.764;2023-03-14T13:32:22;99777.28;;;5.98;49.01
54920;BME280;63804;53.120;8.764;2023-03-14T13:34:51;99779.53;;;6.14;48.50
54920;BME280;63804;53.120;8.764;2023-03-14T13:37:19;99776.41;;;6.09;48.00
54920;BME280;63804;53.120;8.764;2023-03-14T13:39:50;99795.75;;;5.98;48.74
54920;BME280;63804;53.120;8.764;2023-03-14T13:42:29;99813.22;;;6.10;48.88
54920;BME280;63804;53.120;8.764;2023-03-14T13:44:56;99816.31;;;6.26;49.13
54920;BME280;63804;53.120;8.764;2023-03-14T13:47:24;99819.94;;;6.14;47.81
54920;BME280;63804;53.120;8.764;2023-03-14T13:49:51;99828.31;;;5.86;47.47
54920;BME280;63804;53.120;8.764;2023-03-14T13:52:37;99828.19;;;5.76;45.65
54920;BME280;63804;53.120;8.764;2023-03-14T13:55:05;99835.28;;;5.87;46.64
54920;BME280;63804;53.120;8.764;2023-03-14T13:57:45;99844.72;;;6.12;44.70
54920;BME280;63804;53.120;8.764;2023-03-14T14:00:25;99832.91;;;6.40;42.01
54920;BME280;63804;53.120;8.764;2023-03-14T14:02:57;99850.41;;;6.41;41.71
54920;BME280;63804;53.120;8.764;2023-03-14T14:05:27;99862.16;;;6.48;41.51
54920;BME280;63804;53.120;8.764;2023-03-14T14:07:53;99870.28;;;6.34;41.30
54920;BME280;63804;53.120;8.764;2023-03-14T14:10:20;99874.97;;;6.52;41.12
54920;BME280;63804;53.120;8.764;2023-03-14T14:13:00;99882.66;;;6.44;39.82
54920;BME280;63804;53.120;8.764;2023-03-14T14:15:28;99892.44;;;6.20;41.88
54920;BME280;63804;53.120;8.764;2023-03-14T14:17:58;99915.69;;;6.03;42.71
54920;BME280;63804;53.120;8.764;2023-03-14T14:20:51;99918.06;;;5.95;43.72
54920;BME280;63804;53.120;8.764;2023-03-14T14:23:22;99934.63;;;6.09;44.77